createdAt,value
2018-12-12T00:00:16.380Z,28.05
2018-12-12T00:02:45.059Z,28.36
2018-12-12T00:05:13.692Z,28.62
2018-12-12T00:07:42.530Z,28.47
2018-12-12T00:10:15.433Z,28.43
2018-12-12T00:12:44.340Z,28.57
2018-12-12T00:15:13.098Z,28.47
2018-12-12T00:17:42.003Z,28.42
2018-12-12T00:20:11.073Z,28.24
2018-12-12T00:22:40.021Z,28.52
2018-12-12T00:25:08.739Z,28.04
2018-12-12T00:27:37.526Z,27.98
2018-12-12T00:30:06.898Z,28.36
2018-12-12T00:32:35.882Z,28.35
2018-12-12T00:35:05.347Z,28.00
2018-12-12T00:37:34.259Z,28.27
2018-12-12T00:40:02.940Z,27.87
2018-12-12T00:42:31.811Z,28.27
2018-12-12T00:45:00.383Z,27.65
2018-12-12T00:47:29.197Z,27.72
2018-12-12T00:49:57.833Z,27.78
2018-12-12T00:52:26.624Z,27.71
2018-12-12T00:54:55.388Z,28.25
2018-12-12T00:57:24.451Z,27.69
2018-12-12T00:59:53.168Z,27.58
2018-12-12T01:02:21.903Z,27.72
2018-12-12T01:04:50.758Z,27.60
2018-12-12T01:07:19.593Z,27.58
2018-12-12T01:09:48.258Z,28.12
2018-12-12T01:12:16.884Z,27.59
2018-12-12T01:14:45.774Z,27.91
2018-12-12T01:17:14.342Z,27.53
2018-12-12T01:19:43.077Z,27.45
2018-12-12T01:22:12.250Z,28.13
2018-12-12T01:24:41.225Z,28.07
2018-12-12T01:27:10.077Z,28.08
2018-12-12T01:29:38.806Z,27.91
2018-12-12T01:32:07.515Z,27.87
2018-12-12T01:34:36.288Z,27.36
2018-12-12T01:37:05.506Z,27.83
2018-12-12T01:39:34.251Z,27.83
2018-12-12T01:42:03.020Z,27.94
2018-12-12T01:44:31.930Z,27.27
2018-12-12T01:47:00.727Z,27.31
2018-12-12T01:49:29.660Z,27.59
2018-12-12T01:51:58.340Z,27.89
2018-12-12T01:54:26.985Z,27.40
2018-12-12T01:56:55.819Z,27.92
2018-12-12T01:59:24.453Z,27.24
2018-12-12T02:01:53.153Z,27.75
2018-12-12T02:04:21.836Z,27.76
2018-12-12T02:06:50.632Z,27.25
2018-12-12T02:09:19.302Z,27.84
2018-12-12T02:11:48.149Z,27.61
2018-12-12T02:14:16.903Z,27.50
2018-12-12T02:16:45.518Z,27.79
2018-12-12T02:19:14.099Z,27.75
2018-12-12T02:21:42.947Z,27.71
2018-12-12T02:24:11.647Z,27.72
2018-12-12T02:26:40.474Z,27.20
2018-12-12T02:29:09.168Z,27.12
2018-12-12T02:31:37.943Z,27.69
2018-12-12T02:34:06.623Z,27.18
2018-12-12T02:36:35.395Z,27.62
2018-12-12T02:39:05.077Z,27.52
2018-12-12T02:41:33.784Z,27.11
2018-12-12T02:44:02.629Z,27.12
2018-12-12T02:46:31.290Z,27.44
2018-12-12T02:49:00.098Z,27.16
2018-12-12T02:51:28.690Z,27.28
2018-12-12T02:53:57.871Z,27.09
2018-12-12T02:56:26.624Z,26.97
2018-12-12T02:58:55.404Z,27.53
2018-12-12T03:01:24.258Z,26.99
2018-12-12T03:03:53.331Z,26.92
2018-12-12T03:06:22.035Z,27.01
2018-12-12T03:08:50.717Z,26.72
2018-12-12T03:11:24.163Z,26.95
2018-12-12T03:13:53.607Z,26.86
2018-12-12T03:16:22.568Z,27.00
2018-12-12T03:18:51.257Z,26.91
2018-12-12T03:21:19.827Z,27.46
2018-12-12T03:23:48.532Z,27.47
2018-12-12T03:26:17.202Z,27.03
2018-12-12T03:28:46.157Z,27.39
2018-12-12T03:31:14.864Z,27.16
2018-12-12T03:33:43.782Z,26.83
2018-12-12T03:36:12.453Z,26.81
2018-12-12T03:38:41.304Z,27.25
2018-12-12T03:41:10.035Z,26.90
2018-12-12T03:43:38.685Z,26.79
2018-12-12T03:46:07.415Z,26.75
2018-12-12T03:48:36.421Z,26.79
2018-12-12T03:51:05.168Z,27.29
2018-12-12T03:53:34.105Z,26.87
2018-12-12T03:56:02.805Z,27.35
2018-12-12T03:58:31.684Z,26.74
2018-12-12T04:01:00.428Z,27.38
2018-12-12T04:03:29.201Z,27.25
2018-12-12T04:05:57.926Z,27.28
2018-12-12T04:08:26.911Z,27.26
2018-12-12T04:10:55.842Z,27.25
2018-12-12T04:13:24.769Z,26.68
2018-12-12T04:15:53.511Z,26.83
2018-12-12T04:18:22.288Z,26.66
2018-12-12T04:20:50.989Z,26.76
2018-12-12T04:23:19.840Z,27.26
2018-12-12T04:25:48.628Z,26.62
2018-12-12T04:28:17.583Z,26.87
2018-12-12T04:30:46.359Z,27.17
2018-12-12T04:33:15.296Z,27.19
2018-12-12T04:35:44.184Z,26.86
2018-12-12T04:38:12.979Z,26.64
2018-12-12T04:40:41.609Z,27.12
2018-12-12T04:43:10.387Z,27.21
2018-12-12T04:45:39.180Z,26.96
2018-12-12T04:48:07.968Z,27.21
2018-12-12T04:50:36.871Z,26.67
2018-12-12T04:53:05.575Z,27.00
2018-12-12T04:55:34.163Z,26.71
2018-12-12T04:58:02.763Z,27.14
2018-12-12T05:00:31.418Z,26.77
2018-12-12T05:03:00.318Z,27.11
2018-12-12T05:05:29.103Z,27.18
2018-12-12T05:07:57.693Z,26.92
2018-12-12T05:10:26.411Z,26.97
2018-12-12T05:12:55.116Z,26.98
2018-12-12T05:15:23.834Z,26.71
2018-12-12T05:17:53.224Z,26.51
2018-12-12T05:20:22.147Z,27.05
2018-12-12T05:22:50.725Z,27.08
2018-12-12T05:25:19.520Z,26.67
2018-12-12T05:27:48.503Z,26.59
2018-12-12T05:30:17.095Z,26.65
2018-12-12T05:32:45.863Z,26.54
2018-12-12T05:35:14.452Z,26.53
2018-12-12T05:37:50.735Z,27.01
2018-12-12T05:40:14.434Z,26.52
2018-12-12T05:42:43.428Z,26.94
2018-12-12T05:45:12.231Z,26.55
2018-12-12T05:47:41.095Z,26.65
2018-12-12T05:50:09.723Z,26.48
2018-12-12T05:52:38.339Z,26.89
2018-12-12T05:55:07.309Z,26.84
2018-12-12T05:57:36.124Z,26.71
2018-12-12T06:00:05.584Z,26.90
2018-12-12T06:02:34.584Z,26.57
2018-12-12T06:05:03.571Z,26.57
2018-12-12T06:07:32.505Z,26.53
2018-12-12T06:10:01.144Z,26.70
2018-12-12T06:12:29.762Z,26.65
2018-12-12T06:14:58.566Z,26.38
2018-12-12T06:17:27.551Z,26.92
2018-12-12T06:19:56.855Z,26.92
2018-12-12T06:22:26.008Z,26.33
2018-12-12T06:24:54.644Z,26.72
2018-12-12T06:27:23.452Z,26.66
2018-12-12T06:29:52.326Z,26.55
2018-12-12T06:32:21.126Z,26.56
2018-12-12T06:34:49.946Z,26.59
2018-12-12T06:37:18.805Z,26.72
2018-12-12T06:39:47.585Z,26.73
2018-12-12T06:42:16.351Z,26.75
2018-12-12T06:44:45.152Z,26.57
2018-12-12T06:47:14.168Z,27.13
2018-12-12T06:49:42.792Z,27.20
2018-12-12T06:52:11.394Z,26.58
2018-12-12T06:54:40.123Z,26.83
2018-12-12T06:57:08.816Z,26.64
2018-12-12T06:59:37.715Z,26.92
2018-12-12T07:02:06.283Z,27.09
2018-12-12T07:04:35.386Z,27.07
2018-12-12T07:07:04.910Z,27.25
2018-12-12T07:09:33.574Z,27.17
2018-12-12T07:12:02.459Z,26.62
2018-12-12T07:14:31.395Z,26.70
2018-12-12T07:17:00.006Z,27.18
2018-12-12T07:19:28.708Z,27.09
2018-12-12T07:21:57.751Z,27.33
2018-12-12T07:24:26.376Z,27.43
2018-12-12T07:26:54.976Z,27.97
2018-12-12T07:29:23.596Z,28.32
2018-12-12T07:31:52.188Z,27.83
2018-12-12T07:34:20.977Z,27.89
2018-12-12T07:36:49.535Z,28.42
2018-12-12T07:39:18.320Z,28.39
2018-12-12T07:41:47.460Z,28.68
2018-12-12T07:44:16.664Z,29.22
2018-12-12T07:46:45.477Z,28.97
2018-12-12T07:49:14.498Z,30.00
2018-12-12T07:51:43.351Z,30.53
2018-12-12T07:54:12.944Z,30.33
2018-12-12T07:56:41.558Z,30.12
2018-12-12T07:59:10.185Z,30.54
2018-12-12T08:01:38.968Z,30.71
2018-12-12T08:04:07.570Z,30.49
2018-12-12T08:06:36.210Z,30.90
2018-12-12T08:09:07.831Z,30.86
2018-12-12T08:11:36.535Z,31.38
2018-12-12T08:14:05.965Z,30.41
2018-12-12T08:16:34.792Z,30.50
2018-12-12T08:19:03.631Z,30.15
2018-12-12T08:21:32.402Z,29.75
2018-12-12T08:24:01.203Z,30.03
2018-12-12T08:26:30.078Z,30.10
2018-12-12T08:28:58.828Z,29.71
2018-12-12T08:31:27.564Z,29.67
2018-12-12T08:33:56.246Z,29.87
2018-12-12T08:36:25.359Z,29.32
2018-12-12T08:38:54.199Z,29.28
2018-12-12T08:41:22.931Z,29.66
2018-12-12T08:43:51.805Z,29.32
2018-12-12T08:46:20.612Z,28.89
2018-12-12T08:48:49.327Z,28.90
2018-12-12T08:51:18.149Z,28.83
2018-12-12T08:53:46.875Z,29.32
2018-12-12T08:56:15.864Z,29.30
2018-12-12T08:58:44.758Z,29.27
2018-12-12T09:01:13.821Z,29.11
2018-12-12T09:03:42.714Z,29.10
2018-12-12T09:06:12.809Z,28.50
2018-12-12T09:08:41.796Z,28.86
2018-12-12T09:11:10.719Z,28.45
2018-12-12T09:13:39.539Z,28.33
2018-12-12T09:16:08.591Z,28.81
2018-12-12T09:18:37.440Z,28.20
2018-12-12T09:21:06.125Z,28.63
2018-12-12T09:23:34.914Z,28.51
2018-12-12T09:26:03.680Z,28.41
2018-12-12T09:28:32.585Z,28.20
2018-12-12T09:31:01.614Z,28.27
2018-12-12T09:33:30.623Z,28.01
2018-12-12T09:35:59.628Z,28.51
2018-12-12T09:38:28.359Z,28.09
2018-12-12T09:40:57.265Z,28.45
2018-12-12T09:43:25.883Z,28.11
2018-12-12T09:45:54.836Z,27.86
2018-12-12T09:48:23.743Z,28.26
2018-12-12T09:50:52.738Z,28.19
2018-12-12T09:53:21.555Z,27.78
2018-12-12T09:55:50.500Z,27.82
2018-12-12T09:58:19.233Z,28.30
2018-12-12T10:00:48.228Z,28.32
2018-12-12T10:03:17.068Z,28.23
2018-12-12T10:05:45.705Z,27.81
2018-12-12T10:08:14.585Z,27.81
2018-12-12T10:10:43.650Z,28.21
2018-12-12T10:13:12.542Z,27.36
2018-12-12T10:15:41.280Z,28.20
2018-12-12T10:18:10.273Z,27.54
2018-12-12T10:20:39.130Z,27.46
2018-12-12T10:23:08.242Z,27.56
2018-12-12T10:25:37.237Z,27.41
2018-12-12T10:28:06.152Z,27.94
2018-12-12T10:30:34.947Z,27.42
2018-12-12T10:33:03.791Z,27.46
2018-12-12T10:35:32.508Z,28.00
2018-12-12T10:38:01.599Z,27.95
2018-12-12T10:40:30.473Z,27.34
2018-12-12T10:42:59.401Z,27.85
2018-12-12T10:45:28.240Z,27.37
2018-12-12T10:47:56.971Z,27.51
2018-12-12T10:50:25.968Z,27.21
2018-12-12T10:52:54.911Z,27.26
2018-12-12T10:55:23.802Z,27.90
2018-12-12T10:57:52.732Z,27.76
2018-12-12T11:00:21.795Z,27.67
2018-12-12T11:02:55.791Z,27.08
2018-12-12T11:05:24.776Z,27.29
2018-12-12T11:07:53.565Z,27.17
2018-12-12T11:10:22.365Z,27.16
2018-12-12T11:12:51.217Z,27.12
2018-12-12T11:15:20.011Z,27.26
2018-12-12T11:17:48.811Z,27.68
2018-12-12T11:20:17.813Z,27.62
2018-12-12T11:22:46.709Z,27.11
2018-12-12T11:25:15.434Z,26.93
2018-12-12T11:27:44.428Z,27.09
2018-12-12T11:30:13.179Z,27.38
2018-12-12T11:32:41.822Z,27.41
2018-12-12T11:35:11.173Z,27.04
2018-12-12T11:37:40.295Z,27.26
2018-12-12T11:40:09.292Z,26.99
2018-12-12T11:42:38.125Z,27.43
2018-12-12T11:45:07.242Z,26.96
2018-12-12T11:47:36.165Z,27.56
2018-12-12T11:50:05.361Z,27.01
2018-12-12T11:52:34.165Z,27.07
2018-12-12T11:55:03.225Z,26.95
2018-12-12T11:57:32.548Z,26.88
2018-12-12T12:00:01.532Z,27.50
2018-12-12T12:02:35.458Z,27.52
2018-12-12T12:05:01.402Z,27.09
2018-12-12T12:07:30.380Z,26.96
2018-12-12T12:09:59.166Z,26.98
2018-12-12T12:12:28.103Z,26.85
2018-12-12T12:14:56.868Z,26.85
2018-12-12T12:17:25.928Z,26.89
2018-12-12T12:19:54.876Z,26.83
2018-12-12T12:22:23.973Z,26.83
2018-12-12T12:24:52.872Z,26.83
2018-12-12T12:27:21.971Z,26.80
2018-12-12T12:29:50.622Z,26.97
2018-12-12T12:32:19.438Z,26.84
2018-12-12T12:34:48.391Z,27.33
2018-12-12T12:37:17.318Z,27.51
2018-12-12T12:39:46.261Z,26.96
2018-12-12T12:42:15.263Z,26.76
2018-12-12T12:44:43.958Z,27.24
2018-12-12T12:47:13.416Z,26.91
2018-12-12T12:49:42.026Z,26.76
2018-12-12T12:52:10.974Z,27.30
2018-12-12T12:54:39.932Z,27.27
2018-12-12T12:57:08.824Z,27.11
2018-12-12T12:59:37.920Z,26.69
2018-12-12T13:02:06.697Z,27.21
2018-12-12T13:04:35.662Z,27.22
2018-12-12T13:07:04.496Z,27.21
2018-12-12T13:09:33.087Z,26.59
2018-12-12T13:12:01.909Z,26.61
2018-12-12T13:14:31.058Z,26.62
2018-12-12T13:16:59.746Z,26.85
2018-12-12T13:19:28.678Z,27.03
2018-12-12T13:21:57.283Z,26.89
2018-12-12T13:24:26.075Z,26.53
2018-12-12T13:26:54.907Z,27.04
2018-12-12T13:29:23.872Z,26.79
2018-12-12T13:31:52.778Z,26.43
2018-12-12T13:34:21.531Z,26.48
2018-12-12T13:36:50.288Z,27.00
2018-12-12T13:39:19.167Z,26.51
2018-12-12T13:41:47.952Z,26.97
2018-12-12T13:44:16.676Z,26.90
2018-12-12T13:46:45.608Z,26.92
2018-12-12T13:49:14.424Z,26.89
2018-12-12T13:51:43.142Z,26.92
2018-12-12T13:54:12.739Z,26.94
2018-12-12T13:56:41.767Z,26.31
2018-12-12T13:59:10.546Z,26.90
2018-12-12T14:01:39.554Z,26.75
2018-12-12T14:04:08.451Z,26.54
2018-12-12T14:06:37.334Z,26.90
2018-12-12T14:09:07.295Z,26.43
2018-12-12T14:11:36.103Z,27.17
2018-12-12T14:14:04.925Z,26.38
2018-12-12T14:16:33.941Z,27.04
2018-12-12T14:19:03.441Z,26.35
2018-12-12T14:21:32.357Z,26.51
2018-12-12T14:24:01.267Z,26.96
2018-12-12T14:26:30.144Z,26.94
2018-12-12T14:28:59.083Z,26.93
2018-12-12T14:31:27.997Z,26.42
2018-12-12T14:33:56.874Z,26.95
2018-12-12T14:36:25.893Z,26.57
2018-12-12T14:38:54.704Z,26.94
2018-12-12T14:41:23.548Z,26.57
2018-12-12T14:43:52.496Z,26.49
2018-12-12T14:46:21.436Z,26.48
2018-12-12T14:48:50.435Z,27.00
2018-12-12T14:51:19.277Z,26.40
2018-12-12T14:53:48.064Z,26.41
2018-12-12T14:56:16.917Z,26.61
2018-12-12T14:58:45.749Z,26.43
2018-12-12T15:01:14.683Z,26.56
2018-12-12T15:03:43.690Z,26.87
2018-12-12T15:06:12.649Z,26.56
2018-12-12T15:08:41.345Z,26.49
2018-12-12T15:11:10.324Z,26.45
2018-12-12T15:13:39.125Z,26.36
2018-12-12T15:16:08.043Z,26.91
2018-12-12T15:18:37.137Z,26.55
2018-12-12T15:21:06.001Z,26.84
2018-12-12T15:23:34.990Z,27.00
2018-12-12T15:26:03.762Z,26.48
2018-12-12T15:28:32.964Z,26.41
2018-12-12T15:31:02.147Z,26.32
2018-12-12T15:33:31.559Z,26.61
2018-12-12T15:36:00.557Z,26.45
2018-12-12T15:38:29.516Z,26.38
2018-12-12T15:40:58.544Z,26.46
2018-12-12T15:43:27.623Z,26.40
2018-12-12T15:45:56.628Z,26.83
2018-12-12T15:48:25.720Z,26.58
2018-12-12T15:50:54.626Z,26.25
2018-12-12T15:53:23.640Z,26.72
2018-12-12T15:55:53.066Z,26.33
2018-12-12T15:58:22.319Z,26.26
2018-12-12T16:00:51.423Z,26.36
2018-12-12T16:03:20.896Z,26.31
2018-12-12T16:05:49.952Z,26.75
2018-12-12T16:08:19.049Z,26.75
2018-12-12T16:10:48.308Z,26.25
2018-12-12T16:13:17.288Z,26.47
2018-12-12T16:15:46.205Z,26.69
2018-12-12T16:18:15.160Z,26.78
2018-12-12T16:20:44.362Z,26.77
2018-12-12T16:23:13.362Z,26.55
2018-12-12T16:25:42.596Z,26.27
2018-12-12T16:28:11.959Z,26.53
2018-12-12T16:30:41.854Z,26.08
2018-12-12T16:33:11.109Z,26.72
2018-12-12T16:35:40.148Z,25.98
2018-12-12T16:38:09.245Z,26.78
2018-12-12T16:40:38.306Z,26.40
2018-12-12T16:43:07.139Z,26.15
2018-12-12T16:45:36.039Z,26.75
2018-12-12T16:48:04.870Z,26.35
2018-12-12T16:50:33.991Z,26.46
2018-12-12T16:53:02.980Z,26.68
2018-12-12T16:55:32.015Z,26.15
2018-12-12T16:58:00.859Z,26.10
2018-12-12T17:00:29.901Z,26.66
2018-12-12T17:02:58.867Z,26.74
2018-12-12T17:05:27.862Z,26.24
2018-12-12T17:07:56.720Z,26.07
2018-12-12T17:10:25.697Z,26.13
2018-12-12T17:12:54.669Z,26.40
2018-12-12T17:15:23.574Z,26.14
2018-12-12T17:17:52.499Z,26.17
2018-12-12T17:20:21.566Z,26.50
2018-12-12T17:22:50.611Z,26.66
2018-12-12T17:25:19.594Z,26.76
2018-12-12T17:27:48.645Z,26.51
2018-12-12T17:30:17.472Z,26.64
2018-12-12T17:32:46.344Z,26.66
2018-12-12T17:35:15.427Z,26.38
2018-12-12T17:37:44.475Z,26.15
2018-12-12T17:40:13.578Z,26.33
2018-12-12T17:42:42.583Z,26.52
2018-12-12T17:45:11.702Z,26.09
2018-12-12T17:47:40.653Z,26.20
2018-12-12T17:50:09.724Z,26.12
2018-12-12T17:52:38.773Z,26.29
2018-12-12T17:55:07.839Z,26.73
2018-12-12T17:57:36.880Z,26.08
2018-12-12T18:00:07.570Z,26.70
2018-12-12T18:02:36.666Z,26.17
2018-12-12T18:05:05.963Z,26.11
2018-12-12T18:07:34.929Z,26.23
2018-12-12T18:10:03.859Z,25.86
2018-12-12T18:12:32.915Z,26.22
2018-12-12T18:15:01.994Z,26.59
2018-12-12T18:17:30.956Z,26.63
2018-12-12T18:19:59.780Z,26.03
2018-12-12T18:22:28.774Z,26.08
2018-12-12T18:24:57.464Z,26.41
2018-12-12T18:27:26.333Z,26.09
2018-12-12T18:29:55.331Z,26.05
2018-12-12T18:32:24.285Z,26.08
2018-12-12T18:34:53.325Z,26.03
2018-12-12T18:37:22.282Z,26.40
2018-12-12T18:39:51.311Z,26.04
2018-12-12T18:42:20.414Z,26.51
2018-12-12T18:44:49.357Z,26.28
2018-12-12T18:47:18.411Z,26.55
2018-12-12T18:49:47.312Z,26.60
2018-12-12T18:52:16.295Z,26.48
2018-12-12T18:54:45.255Z,25.96
2018-12-12T18:57:14.212Z,26.02
2018-12-12T18:59:43.268Z,26.40
2018-12-12T19:02:12.173Z,26.07
2018-12-12T19:04:41.247Z,25.86
2018-12-12T19:07:10.153Z,25.77
2018-12-12T19:09:39.154Z,26.32
2018-12-12T19:12:09.003Z,26.06
2018-12-12T19:14:41.973Z,26.41
2018-12-12T19:17:11.829Z,26.02
2018-12-12T19:19:40.733Z,25.88
2018-12-12T19:22:09.799Z,25.78
2018-12-12T19:24:38.724Z,26.05
2018-12-12T19:27:07.759Z,26.34
2018-12-12T19:29:36.714Z,26.52
2018-12-12T19:32:05.690Z,25.74
2018-12-12T19:34:34.697Z,26.08
2018-12-12T19:37:03.737Z,25.89
2018-12-12T19:39:32.823Z,26.06
2018-12-12T19:42:01.786Z,26.39
2018-12-12T19:44:30.684Z,26.30
2018-12-12T19:46:59.592Z,26.40
2018-12-12T19:49:28.459Z,26.39
2018-12-12T19:51:57.303Z,26.34
2018-12-12T19:54:26.461Z,26.34
2018-12-12T19:56:55.405Z,26.11
2018-12-12T19:59:24.514Z,26.19
2018-12-12T20:01:53.550Z,25.83
2018-12-12T20:04:22.514Z,26.01
2018-12-12T20:06:51.538Z,26.24
2018-12-12T20:09:20.476Z,25.96
2018-12-12T20:11:50.178Z,25.84
2018-12-12T20:14:19.355Z,26.34
2018-12-12T20:16:48.342Z,25.77
2018-12-12T20:19:17.401Z,25.98
2018-12-12T20:21:46.524Z,25.84
2018-12-12T20:24:15.472Z,25.83
2018-12-12T20:26:44.719Z,26.38
2018-12-12T20:29:14.000Z,26.21
2018-12-12T20:31:42.965Z,26.06
2018-12-12T20:34:12.783Z,25.98
2018-12-12T20:36:41.880Z,26.23
2018-12-12T20:39:11.045Z,26.30
2018-12-12T20:41:40.120Z,26.35
2018-12-12T20:44:09.168Z,26.10
2018-12-12T20:46:38.294Z,26.24
2018-12-12T20:49:07.300Z,26.23
2018-12-12T20:51:36.357Z,26.29
2018-12-12T20:54:05.268Z,26.37
2018-12-12T20:56:34.185Z,25.70
2018-12-12T20:59:03.227Z,26.31
2018-12-12T21:01:32.283Z,25.80
2018-12-12T21:04:01.637Z,25.86
2018-12-12T21:06:30.517Z,26.22
2018-12-12T21:13:55.048Z,26.27
2018-12-12T21:16:24.036Z,25.71
2018-12-12T21:18:53.295Z,26.36
2018-12-12T21:21:22.148Z,25.96
2018-12-12T21:23:51.448Z,26.77
2018-12-12T21:26:20.589Z,26.74
2018-12-12T21:28:49.287Z,26.42
2018-12-12T21:31:17.999Z,26.92
2018-12-12T21:33:46.733Z,27.20
2018-12-12T21:36:15.434Z,27.44
2018-12-12T21:38:44.123Z,26.78
2018-12-12T21:41:12.848Z,27.35
2018-12-12T21:43:41.573Z,26.91
2018-12-12T21:46:10.279Z,27.53
2018-12-12T21:48:39.053Z,26.98
2018-12-12T21:51:08.778Z,26.96
2018-12-12T21:53:37.477Z,27.66
2018-12-12T21:56:06.370Z,27.65
2018-12-12T21:58:35.152Z,27.59
2018-12-12T22:01:03.879Z,27.17
2018-12-12T22:03:32.550Z,27.15
2018-12-12T22:06:07.362Z,27.70
2018-12-12T22:08:32.083Z,27.17
2018-12-12T22:11:00.738Z,27.52
2018-12-12T22:13:29.420Z,27.64
2018-12-12T22:15:58.381Z,27.12
2018-12-12T22:18:27.498Z,27.10
2018-12-12T22:20:56.491Z,27.45
2018-12-12T22:23:25.780Z,27.48
2018-12-12T22:25:54.791Z,27.35
2018-12-12T22:28:23.487Z,26.74
2018-12-12T22:30:52.419Z,27.19
2018-12-12T22:33:21.259Z,27.24
2018-12-12T22:35:50.135Z,26.69
2018-12-12T22:38:19.047Z,26.51
2018-12-12T22:40:48.079Z,26.50
2018-12-12T22:43:17.022Z,27.02
2018-12-12T22:45:45.685Z,26.52
2018-12-12T22:48:20.334Z,26.91
2018-12-12T22:50:45.496Z,26.94
2018-12-12T22:53:14.125Z,26.90
2018-12-12T22:55:43.150Z,26.78
2018-12-12T22:58:12.168Z,26.46
2018-12-12T23:00:44.516Z,26.35
2018-12-12T23:03:13.484Z,26.19
2018-12-12T23:05:42.436Z,26.15
2018-12-12T23:08:11.566Z,26.72
2018-12-12T23:10:40.253Z,26.27
2018-12-12T23:13:08.828Z,26.00
2018-12-12T23:15:37.615Z,26.38
2018-12-12T23:18:06.415Z,26.55
2018-12-12T23:20:35.203Z,26.57
2018-12-12T23:23:03.884Z,26.12
2018-12-12T23:25:32.777Z,25.94
2018-12-12T23:28:01.427Z,26.29
2018-12-12T23:30:30.145Z,26.44
2018-12-12T23:32:58.962Z,25.96
2018-12-12T23:35:27.952Z,26.00
2018-12-12T23:37:56.836Z,26.31
2018-12-12T23:40:25.724Z,26.17
2018-12-12T23:42:54.668Z,26.10
2018-12-12T23:45:23.336Z,26.35
2018-12-12T23:47:51.947Z,25.61
2018-12-12T23:50:20.622Z,25.70
2018-12-12T23:52:49.502Z,26.31
2018-12-12T23:55:18.456Z,25.82
2018-12-12T23:57:47.168Z,26.17
